Plymouth Light

42° 00' 12"N, 70° 36' 04"W, Elevation 54 ft.
Eastern Time

Hourly observations for the last 72 hours

Date Time Temperature (F) Humi-
dity

(%)
Wind
(mph)
Pressure Rain (in) Sun
(W/m2)
ET
(in)
Air Dew 6 Hour 1 Hr 3 Hr 6 Hr Day
Alt
(in)
Sea
Level

(mb)
Max Min
11 03:00 35.6 26.4 69 W 6 G 16 29.91 1012.9 0.00 0 0.002
11 02:00 35.8 27.0 70 W 5 G 15 29.92 1013.4 0.00 0 0.001
11 01:00 36.0 27.2 36.3 35.0 70 W 9 G 15 29.93 1013.6 0.00 0 0.000
11 00:00 36.0 28.5 74 W 6 G 13 29.93 1013.6 0.01 0 0.043
10 23:00 35.2 28.1 75 W 6 G 10 29.94 1013.9 0.01 0 0.043
10 22:00 35.5 28.4 75 W 7 G 15 29.93 1013.6 0.01 0 0.042
10 21:00 35.1 28.9 78 W 5 G 13 29.93 1013.5 0.01 0 0.042
10 20:00 35.6 29.1 77 WSW 3 G 12 29.92 1013.3 0.01 0 0.041
10 19:00 36.3 29.1 38.5 36.0 75 WSW 5 G 13 29.91 1012.7 0.01 0 0.040
10 18:00 36.1 29.3 76 W 3 G 11 29.89 1012.2 0.01 0 0.040
10 17:00 36.6 28.8 73 W 6 G 13 29.87 1011.6 0.01 0 0.039
10 16:00 37.0 27.8 69 WNW 7 G 17 29.84 1010.5 0.01 11 0.037
10 15:00 37.8 28.9 70 NNW 14 G 21 29.80 1009.2 0.01 35 0.033
10 14:00 37.9 30.4 74 W 10 G 15 29.78 1008.4 0.01 285 0.027
10 13:00 37.3 30.4 37.3 32.4 76 N 10 G 16 29.76 1007.7 0.01 387 0.020
10 12:00 36.4 30.8 80 N 9 G 19 29.75 1007.7 0.01 439 0.013
10 11:00 35.0 30.4 83 WNW 10 G 18 29.75 1007.6 0.01 445 0.007
10 10:00 33.9 30.2 86 WNW 11 G 20 29.74 1007.3 0.01 388 0.002
10 09:00 32.4 29.8 90 WNW 11 G 18 29.73 1006.6 0.01 74 0.001
10 08:00 32.6 30.8 93 WNW 10 G 17 29.69 1005.5 0.01 49 0.000
10 07:00 32.7 31.2 33.7 32.1 94 WNW 7 G 13 29.67 1004.7 0.01 0 0.000
10 06:00 32.1 30.6 94 NW 3 G 11 29.64 1003.7 0.01 0 0.000
10 05:00 32.3 31.0 95 NW 3 G 13 29.61 1002.8 0.01 0 0.000
10 04:00 32.3 31.0 95 NNW 3 G 12 29.58 1001.9 0.01 0 0.000
10 03:00 32.4 31.1 95 NNW 3 G 11 29.58 1001.9 0.01 0 0.000
10 02:00 32.5 31.5 96 NNW 3 G 14 29.58 1001.6 0.01 0 0.000
10 01:00 33.7 32.4 39.1 33.7 95 NNW 7 G 14 29.54 1000.3 0.01 0.07 0.14 0.01 0 0.000
10 00:00 36.9 35.3 94 N 8 G 21 29.55 1000.7 0.02 0.51 0 0.009
9 23:00 38.2 36.6 94 N 16 G 24 29.55 1000.5 0.04 0.49 0 0.009
9 22:00 38.5 37.2 95 N 14 G 26 29.55 1000.7 0.03 0.07 0.45 0 0.008
9 21:00 38.6 37.0 94 NNE 16 G 26 29.57 1001.5 0.01 0.42 0 0.007
9 20:00 38.4 36.8 94 NNE 19 G 27 29.58 1001.9 0.03 0.41 0 0.006
9 19:00 37.7 36.4 37.7 33.8 95 NNE 19 G 29 29.62 1003.1 0.06 0.14 0.37 0.38 0 0.006
9 18:00 37.2 35.9 95 NNE 15 G 24 29.65 1004.1 0.05 0.32 0 0.006
9 17:00 37.0 35.7 95 NNE 18 G 27 29.67 1004.8 0.03 0.27 0 0.006
9 16:00 35.8 34.5 95 NNE 18 G 24 29.71 1006.0 0.05 0.23 0.24 0 0.006
9 15:00 35.3 34.0 95 NNE 15 G 21 29.74 1007.0 0.08 0.19 12 0.005
9 14:00 34.4 33.1 95 NE 9 G 18 29.78 1008.4 0.10 0.11 26 0.004
9 13:00 33.8 32.3 37.2 32.8 94 N 4 G 12 29.83 1010.3 0.01 0.01 0.01 0.01 23 0.004
9 12:00 34.0 31.1 89 N 0 G 2 29.85 1010.9 0.00 32 0.003
9 11:00 35.6 31.0 83 N 3 G 11 29.88 1011.8 0.00 70 0.002
9 10:00 36.0 29.5 77 N 1 G 10 29.91 1012.8 0.00 69 0.001
9 09:00 36.8 27.6 69 Calm 29.94 1013.9 0.00 74 0.000
9 08:00 37.1 27.2 67 Calm 29.95 1014.2 0.00 16 0.000
9 07:00 36.8 24.2 37.3 36.3 60 Calm 29.93 1013.6 0.00 0 0.000
9 06:00 37.0 25.2 62 Calm 29.94 1013.8 0.00 0 0.000
9 05:00 36.8 24.6 61 Calm 29.93 1013.6 0.00 0 0.000
9 04:00 36.9 22.7 56 Calm 29.93 1013.7 0.00 0 0.000
9 03:00 36.4 23.0 58 Calm 29.94 1013.9 0.00 0 0.000
9 02:00 36.7 22.9 57 Calm 29.94 1014.0 0.00 0 0.000
9 01:00 36.4 22.6 38.6 36.2 57 Calm 29.91 1012.8 0.00 0 0.000
9 00:00 36.6 24.8 62 Calm 29.93 1013.6 0.00 0 0.040
8 23:00 37.1 23.3 57 Calm 29.94 1014.0 0.00 0 0.040
8 22:00 37.6 22.5 54 Calm 29.94 1013.8 0.00 0 0.040
8 21:00 38.1 22.5 53 Calm 29.95 1014.1 0.00 0 0.040
8 20:00 38.3 23.5 55 WNW 0 G 1 29.96 1014.6 0.00 0 0.040
8 19:00 38.5 23.7 40.0 38.5 55 WSW 0 G 2 29.98 1015.4 0.00 0 0.040
8 18:00 38.6 22.9 53 WSW 1 G 4 29.99 1015.4 0.00 0 0.040
8 17:00 38.7 21.7 50 W 1 G 8 29.99 1015.6 0.00 0 0.039
8 16:00 39.0 22.9 52 WSW 1 G 10 29.99 1015.5 0.00 5 0.038
8 15:00 39.3 21.2 48 W 1 G 10 29.98 1015.4 0.00 62 0.035
8 14:00 39.2 21.2 48 N 3 G 9 29.98 1015.3 0.00 171 0.031
8 13:00 38.7 21.2 38.7 34.0 49 N 0 G 4 29.99 1015.4 0.00 299 0.026
8 12:00 37.8 19.9 48 N 5 G 11 30.00 1016.0 0.00 195 0.022
8 11:00 37.1 24.1 59 N 4 G 10 30.02 1016.6 0.00 362 0.017
8 10:00 35.8 27.3 71 WNW 1 G 5 30.02 1016.8 0.00 236 0.014
8 09:00 34.4 27.0 74 W 3 G 11 30.02 1016.7 0.00 167 0.012
8 08:00 34.1 26.4 73 WNW 6 G 12 30.01 1016.4 0.00 47 0.011
8 07:00 35.4 26.6 38.1 35.4 70 WNW 6 G 15 30.01 1016.2 0.00 0 0.010
8 06:00 36.1 26.9 69 WNW 5 G 15 29.99 1015.7 0.00 0 0.008
8 05:00 36.2 25.2 64 W 10 G 16 29.97 1015.0 0.00 0 0.007
8 04:00 36.9 26.2 65 W 6 G 16 29.97 1014.9 0.00 0 0.005

Data generated by WxSolution Version 1.8.8.8, Build 2016.04.03.